Weather observations for the past three days for
Douglas, Converse County Airport
Imperial (Metric)
Date Time (mdt) Wind (mph) Vis. (mi.) Weather Sky Cond. Temperature (ºF) Relative Humidity Wind Chill (°F) Heat Index (°F) Pressure Precipitation (in)
Air Dwpt 6 hour altimeter (in) sea level (mb) 1 hr 3 hr 6 hr
Max. Min.
04 16:53 N 17 G 25 10.00 Partly Cloudy FEW055 SCT120 55.9 30.9 39% 29.83 1008.8
04 15:53 N 18 10.00 Partly Cloudy FEW055 SCT110 55.9 30.9 39% 29.84 1009.0
04 14:53 N 14 G 23 10.00 Mostly Cloudy BKN055 59 30.9 35% 29.85 1009.0
04 13:53 N 10 G 26 10.00 A Few Clouds FEW055 57.9 30.9 36% 29.86 1009.2
04 12:53 N 15 G 21 10.00 Partly Cloudy SCT050 57 30 36% 29.88 1009.8
04 11:53 N 15 G 24 10.00 A Few Clouds FEW110 55.9 30 55.9 33.1 37% 29.9 1010.1
04 10:53 N 14 10.00 Partly Cloudy SCT110 54 30 40% 29.91 1010.6
04 09:53 N 22 G 33 10.00 Fair and Breezy CLR 54 28.9 38% 29.88 1009.7
04 08:53 N 18 G 26 10.00 Fair CLR 54 30.9 42% 29.86 1008.0
04 07:53 NW 14 10.00 A Few Clouds FEW110 45 33.1 63% 39 29.83 1007.3
04 06:53 NW 5 10.00 Fair CLR 37 34 89% 34 29.79 1006.1
04 05:53 Calm 10.00 Fair CLR 34 30.9 43 33.1 89% 29.78 1006.2
04 04:53 Calm 10.00 Fair CLR 35.1 30.9 85% 29.77 1005.6
04 03:53 Calm 10.00 Fair CLR 36 32 86% 29.78 1005.7
04 02:53 NW 3 10.00 Fair CLR 37 32 82% 29.78 1005.5
04 00:53 Calm 10.00 Fair CLR 39.9 33.1 77% 29.81 1006.4
03 23:53 Calm 10.00 Fair CLR 44.1 33.1 66 41 65% 29.82 1006.5
03 22:53 S 3 10.00 Fair CLR 45 33.1 63% 29.83 1007.0
03 21:53 Calm 10.00 Fair CLR 46 33.1 61% 29.84 1007.6
03 20:53 Calm 10.00 Fair CLR 53.1 32 45% 29.84 1007.5
03 19:53 Calm 10.00 Fair CLR 61 30 31% 29.83 1006.7
03 18:53 N 7 10.00 Fair CLR 64.9 30 27% 29.84 1007.1
03 17:53 N 5 10.00 Fair CLR 64 30.9 71.1 63 29% 29.86 1008.2
03 16:53 NW 12 G 24 10.00 Partly Cloudy FEW080 SCT100 66 30 26% 29.86 1008.4
03 15:53 N 17 G 35 10.00 Mostly Cloudy BKN100 64.9 30.9 28% 29.87 1008.7
03 14:53 NW 13 G 18 10.00 Mostly Cloudy BKN110 69.1 25 19% 29.87 1008.0
03 13:53 NW 10 G 22 10.00 Fair CLR 70 28 21% 29.9 1008.7
03 12:53 Vrbl 3 10.00 Fair CLR 64.9 28 25% 29.94 1010.5
03 11:53 S 7 10.00 Fair CLR 64 28.9 64 39.9 27% 29.97 1011.2
03 10:53 S 9 10.00 Fair CLR 61 32 34% 29.99 1012.2
03 09:53 S 15 G 22 10.00 Fair CLR 59 33.1 38% 30.01 1012.4
03 08:53 S 8 10.00 Fair CLR 53.1 34 48% 30.03 1013.7
03 07:53 Vrbl 3 10.00 Fair CLR 48.9 33.1 55% 30.04 1014.1
03 06:53 S 5 10.00 Fair CLR 44.1 34 68% 42 30.02 1013.1
03 05:53 E 10 10.00 Fair CLR 42.1 32 51.1 37 68% 37 30 1012.4
03 04:53 E 7 10.00 Fair CLR 39.9 30.9 70% 36 30 1012.3
03 03:53 SE 3 10.00 Fair CLR 41 30 65% 30.01 1012.6
03 02:53 SE 7 10.00 Fair CLR 42.1 30.9 65% 38 30.01 1012.5
03 01:53 NW 3 10.00 Fair CLR 45 30 56% 30.02 1012.9
03 00:53 S 3 10.00 Fair CLR 45 30 56% 30.02 1013.1
02 23:53 Calm 10.00 Fair CLR 50 28 73 48 43% 30.02 1012.5
02 22:53 SW 5 10.00 Fair CLR 50 28 43% 49 30.01 1012.5
02 21:53 NE 15 10.00 Fair CLR 55.9 27 33% 29.99 1012.0
02 20:53 NE 5 10.00 Fair CLR 55.9 21 26% 29.97 1012.4
02 19:53 NW 8 10.00 Fair CLR 61 15.1 17% 29.96 1012.5
02 18:53 W 17 10.00 Fair CLR 69.1 9 9% 29.96 1012.3
02 17:53 W 18 G 24 10.00 Fair CLR 72 10 75 68 9% 29.97 1012.6
02 16:53 W 21 G 29 10.00 Fair and Breezy CLR 73 10 9% 29.98 1012.7
02 15:53 NW 21 G 31 10.00 Fair and Breezy CLR 73 10 9% 30 1013.2
02 14:53 W 16 G 26 10.00 Fair CLR 73 16 11% 30.03 1014.0
02 13:53 NW 15 G 21 10.00 Fair CLR 71.1 17.1 13% 30.05 1014.8
02 12:53 NW 16 G 25 10.00 Fair CLR 69.1 16 13% 30.07 1015.6
02 11:53 NW 17 G 29 10.00 Fair CLR 68 18 68 27 15% 30.09 1016.4
02 10:53 W 21 G 26 10.00 Fair and Breezy CLR 66 19 16% 30.1 1016.6
02 09:53 W 10 G 17 10.00 Fair CLR 57 30.9 37% 30.12 1017.3
02 08:53 NW 6 10.00 Fair CLR 46.9 28 48% 45 30.13 1018.4
02 07:53 Calm 10.00 Fair CLR 37.9 28 68% 30.13 1018.9
02 06:53 Calm 10.00 Fair CLR 30.9 27 85% 30.14 1019.7
02 05:53 Calm 10.00 Fair CLR 27 24.1 37.9 27 89% 30.13 1019.8
02 04:53 Calm 10.00 Fair CLR 28 26.1 92% 30.14 1020.1
02 03:53 W 3 10.00 Fair CLR 30.9 26.1 82% 30.14 1019.7
02 02:53 SE 5 10.00 Fair CLR 32 25 75% 28 30.14 1019.4
02 01:53 Calm 10.00 Fair CLR 35.1 27 72% 30.15 1019.4
02 00:53 SE 6 10.00 Fair CLR 36 27 70% 32 30.16 1019.8
01 23:53 E 6 10.00 Fair CLR 36 27 61 36 70% 32 30.16 1020.2
01 22:53 E 5 10.00 Fair CLR 39.9 27 60% 37 30.16 1019.8
01 21:53 NE 7 10.00 Fair CLR 48 23 37% 45 30.14 1018.7
01 20:53 NE 10 10.00 Fair CLR 50 24.1 36% 46 30.12 1018.2
01 19:53 N 9 10.00 A Few Clouds FEW100 55 21.9 28% 30.09 1017.6
01 17:53 N 16 G 23 10.00 Overcast OVC110 60.1 19.9 63 57.9 21% 30.07 1017.7
Date Time (mdt) Wind (mph) Vis. (mi.) Weather Sky Cond. Air Dwpt Max. Min. Relative Humidity Wind Chill (°F) Heat Index (°F) altimeter (in) sea level (mb) 1 hr 3 hr 6 hr
6 hour
Temperature (ºF) Pressure Precipitation (in)